sensor_id;sensor_type;location;lat;lon;timestamp;temperature;humidity
9323;DHT22;4700;48.822;9.270;2022-10-28T00:02:34;13.90;1.00
9323;DHT22;4700;48.822;9.270;2022-10-28T00:05:22;14.00;1.00
9323;DHT22;4700;48.822;9.270;2022-10-28T00:08:08;14.00;1.00
9323;DHT22;4700;48.822;9.270;2022-10-28T00:11:01;14.00;1.00
9323;DHT22;4700;48.822;9.270;2022-10-28T00:13:48;13.90;1.00
9323;DHT22;4700;48.822;9.270;2022-10-28T00:16:35;13.80;1.00
9323;DHT22;4700;48.822;9.270;2022-10-28T00:19:21;13.80;1.00
9323;DHT22;4700;48.822;9.270;2022-10-28T00:22:08;13.70;1.00
9323;DHT22;4700;48.822;9.270;2022-10-28T00:25:01;13.60;1.00
9323;DHT22;4700;48.822;9.270;2022-10-28T00:27:47;13.60;1.00
9323;DHT22;4700;48.822;9.270;2022-10-28T00:30:32;13.60;1.00
9323;DHT22;4700;48.822;9.270;2022-10-28T00:33:18;13.60;1.00
9323;DHT22;4700;48.822;9.270;2022-10-28T00:36:10;13.50;1.00
9323;DHT22;4700;48.822;9.270;2022-10-28T00:38:58;13.50;1.00
9323;DHT22;4700;48.822;9.270;2022-10-28T00:41:45;13.50;1.00
9323;DHT22;4700;48.822;9.270;2022-10-28T00:44:54;13.40;1.00
9323;DHT22;4700;48.822;9.270;2022-10-28T00:47:46;13.40;1.00
9323;DHT22;4700;48.822;9.270;2022-10-28T00:50:42;13.40;1.00
9323;DHT22;4700;48.822;9.270;2022-10-28T00:53:31;13.30;1.00
9323;DHT22;4700;48.822;9.270;2022-10-28T00:56:18;13.30;1.00
9323;DHT22;4700;48.822;9.270;2022-10-28T00:59:09;13.40;1.00
9323;DHT22;4700;48.822;9.270;2022-10-28T01:01:56;13.40;1.00
9323;DHT22;4700;48.822;9.270;2022-10-28T01:04:42;13.40;1.00
9323;DHT22;4700;48.822;9.270;2022-10-28T01:07:29;13.50;1.00
9323;DHT22;4700;48.822;9.270;2022-10-28T01:10:15;13.60;1.00
9323;DHT22;4700;48.822;9.270;2022-10-28T01:13:08;13.60;1.00
9323;DHT22;4700;48.822;9.270;2022-10-28T01:16:00;13.60;1.00
9323;DHT22;4700;48.822;9.270;2022-10-28T01:21:42;13.60;1.00
9323;DHT22;4700;48.822;9.270;2022-10-28T01:24:54;13.50;1.00
9323;DHT22;4700;48.822;9.270;2022-10-28T01:28:08;13.50;1.00
9323;DHT22;4700;48.822;9.270;2022-10-28T01:31:09;13.40;1.00
9323;DHT22;4700;48.822;9.270;2022-10-28T01:34:06;13.40;1.00
9323;DHT22;4700;48.822;9.270;2022-10-28T01:36:58;13.30;1.00
9323;DHT22;4700;48.822;9.270;2022-10-28T01:39:48;13.30;1.00
9323;DHT22;4700;48.822;9.270;2022-10-28T01:42:39;13.20;1.00
9323;DHT22;4700;48.822;9.270;2022-10-28T01:45:30;13.20;1.00
9323;DHT22;4700;48.822;9.270;2022-10-28T01:48:22;13.20;1.00
9323;DHT22;4700;48.822;9.270;2022-10-28T01:51:13;13.10;1.00
9323;DHT22;4700;48.822;9.270;2022-10-28T01:54:03;13.00;1.00
9323;DHT22;4700;48.822;9.270;2022-10-28T01:56:52;13.00;1.00
9323;DHT22;4700;48.822;9.270;2022-10-28T01:59:39;13.00;1.00
9323;DHT22;4700;48.822;9.270;2022-10-28T02:02:25;13.00;1.00
9323;DHT22;4700;48.822;9.270;2022-10-28T02:05:37;13.00;1.00
9323;DHT22;4700;48.822;9.270;2022-10-28T02:11:58;13.00;1.00
9323;DHT22;4700;48.822;9.270;2022-10-28T02:15:06;13.00;1.00
9323;DHT22;4700;48.822;9.270;2022-10-28T02:18:05;13.00;1.00
9323;DHT22;4700;48.822;9.270;2022-10-28T02:20:57;13.10;1.00
9323;DHT22;4700;48.822;9.270;2022-10-28T02:23:46;13.10;1.00
9323;DHT22;4700;48.822;9.270;2022-10-28T02:26:36;13.10;1.00
9323;DHT22;4700;48.822;9.270;2022-10-28T02:29:28;13.10;1.00
9323;DHT22;4700;48.822;9.270;2022-10-28T02:32:18;13.20;1.00
9323;DHT22;4700;48.822;9.270;2022-10-28T02:35:10;13.20;1.00
9323;DHT22;4700;48.822;9.270;2022-10-28T02:38:01;13.20;1.00
9323;DHT22;4700;48.822;9.270;2022-10-28T02:40:52;13.20;1.00
9323;DHT22;4700;48.822;9.270;2022-10-28T02:43:41;13.20;1.00
9323;DHT22;4700;48.822;9.270;2022-10-28T02:46:29;13.10;1.00
9323;DHT22;4700;48.822;9.270;2022-10-28T02:49:16;13.10;1.00
9323;DHT22;4700;48.822;9.270;2022-10-28T02:52:04;13.00;1.00
9323;DHT22;4700;48.822;9.270;2022-10-28T02:54:54;13.00;1.00
9323;DHT22;4700;48.822;9.270;2022-10-28T02:57:43;12.90;1.00
9323;DHT22;4700;48.822;9.270;2022-10-28T03:00:31;12.90;1.00
9323;DHT22;4700;48.822;9.270;2022-10-28T03:03:17;12.90;1.00
9323;DHT22;4700;48.822;9.270;2022-10-28T03:06:05;12.90;1.00
9323;DHT22;4700;48.822;9.270;2022-10-28T03:08:51;13.00;1.00
9323;DHT22;4700;48.822;9.270;2022-10-28T03:11:38;13.00;1.00
9323;DHT22;4700;48.822;9.270;2022-10-28T03:14:24;13.10;1.00
9323;DHT22;4700;48.822;9.270;2022-10-28T03:17:09;13.10;1.00
9323;DHT22;4700;48.822;9.270;2022-10-28T03:19:55;13.10;1.00
9323;DHT22;4700;48.822;9.270;2022-10-28T03:22:41;13.10;1.00
9323;DHT22;4700;48.822;9.270;2022-10-28T03:25:28;13.10;1.00
9323;DHT22;4700;48.822;9.270;2022-10-28T03:28:15;13.10;1.00
9323;DHT22;4700;48.822;9.270;2022-10-28T03:31:01;13.20;1.00
9323;DHT22;4700;48.822;9.270;2022-10-28T03:33:47;13.20;1.00
9323;DHT22;4700;48.822;9.270;2022-10-28T03:36:32;13.30;1.00
9323;DHT22;4700;48.822;9.270;2022-10-28T03:39:18;13.30;1.00
9323;DHT22;4700;48.822;9.270;2022-10-28T03:42:04;13.30;1.00
9323;DHT22;4700;48.822;9.270;2022-10-28T03:44:51;13.40;1.00
9323;DHT22;4700;48.822;9.270;2022-10-28T03:47:37;13.40;1.00
9323;DHT22;4700;48.822;9.270;2022-10-28T03:50:24;13.20;1.00
9323;DHT22;4700;48.822;9.270;2022-10-28T03:53:10;13.20;1.00
9323;DHT22;4700;48.822;9.270;2022-10-28T03:55:57;13.20;1.00
9323;DHT22;4700;48.822;9.270;2022-10-28T03:58:43;13.20;1.00
9323;DHT22;4700;48.822;9.270;2022-10-28T04:01:32;13.30;1.00
9323;DHT22;4700;48.822;9.270;2022-10-28T04:04:18;13.30;1.00
9323;DHT22;4700;48.822;9.270;2022-10-28T04:07:04;13.30;1.00
9323;DHT22;4700;48.822;9.270;2022-10-28T04:09:49;13.20;1.00
9323;DHT22;4700;48.822;9.270;2022-10-28T04:12:35;13.10;1.00
9323;DHT22;4700;48.822;9.270;2022-10-28T04:15:21;13.00;1.00
9323;DHT22;4700;48.822;9.270;2022-10-28T04:18:08;12.90;1.00
9323;DHT22;4700;48.822;9.270;2022-10-28T04:20:54;12.90;1.00
9323;DHT22;4700;48.822;9.270;2022-10-28T04:23:39;13.00;1.00
9323;DHT22;4700;48.822;9.270;2022-10-28T04:26:34;13.00;1.00
9323;DHT22;4700;48.822;9.270;2022-10-28T04:29:22;13.10;1.00
9323;DHT22;4700;48.822;9.270;2022-10-28T04:32:09;13.10;1.00
9323;DHT22;4700;48.822;9.270;2022-10-28T04:34:56;13.10;1.00
9323;DHT22;4700;48.822;9.270;2022-10-28T04:37:42;13.00;1.00
9323;DHT22;4700;48.822;9.270;2022-10-28T04:40:27;13.00;1.00
9323;DHT22;4700;48.822;9.270;2022-10-28T04:43:13;13.00;1.00
9323;DHT22;4700;48.822;9.270;2022-10-28T04:45:58;13.00;1.00
9323;DHT22;4700;48.822;9.270;2022-10-28T04:48:49;13.00;1.00
9323;DHT22;4700;48.822;9.270;2022-10-28T04:51:36;13.00;1.00
9323;DHT22;4700;48.822;9.270;2022-10-28T04:54:22;13.00;1.00
9323;DHT22;4700;48.822;9.270;2022-10-28T04:57:08;13.00;1.00
9323;DHT22;4700;48.822;9.270;2022-10-28T04:59:53;13.00;1.00
9323;DHT22;4700;48.822;9.270;2022-10-28T05:02:39;13.10;1.00
9323;DHT22;4700;48.822;9.270;2022-10-28T05:05:25;13.10;1.00
9323;DHT22;4700;48.822;9.270;2022-10-28T05:08:12;13.20;1.00
9323;DHT22;4700;48.822;9.270;2022-10-28T05:10:58;13.30;1.00
9323;DHT22;4700;48.822;9.270;2022-10-28T05:13:44;13.30;1.00
9323;DHT22;4700;48.822;9.270;2022-10-28T05:16:30;13.40;1.00
9323;DHT22;4700;48.822;9.270;2022-10-28T05:19:16;13.40;1.00
9323;DHT22;4700;48.822;9.270;2022-10-28T05:22:02;13.40;1.00
9323;DHT22;4700;48.822;9.270;2022-10-28T05:24:49;13.30;1.00
9323;DHT22;4700;48.822;9.270;2022-10-28T05:27:35;13.30;1.00
9323;DHT22;4700;48.822;9.270;2022-10-28T05:30:21;13.30;1.00
9323;DHT22;4700;48.822;9.270;2022-10-28T05:33:07;13.30;1.00
9323;DHT22;4700;48.822;9.270;2022-10-28T05:35:53;13.30;1.00
9323;DHT22;4700;48.822;9.270;2022-10-28T05:38:39;13.30;1.00
9323;DHT22;4700;48.822;9.270;2022-10-28T05:41:29;13.30;1.00
9323;DHT22;4700;48.822;9.270;2022-10-28T05:44:15;13.30;1.00
9323;DHT22;4700;48.822;9.270;2022-10-28T05:47:01;13.30;1.00
9323;DHT22;4700;48.822;9.270;2022-10-28T05:49:47;13.40;1.00
9323;DHT22;4700;48.822;9.270;2022-10-28T05:52:32;13.30;1.00
9323;DHT22;4700;48.822;9.270;2022-10-28T05:55:19;13.30;1.00
9323;DHT22;4700;48.822;9.270;2022-10-28T05:58:07;13.20;1.00
9323;DHT22;4700;48.822;9.270;2022-10-28T06:00:53;13.20;1.00
9323;DHT22;4700;48.822;9.270;2022-10-28T06:03:39;13.20;1.00
9323;DHT22;4700;48.822;9.270;2022-10-28T06:06:26;13.20;1.00
9323;DHT22;4700;48.822;9.270;2022-10-28T06:09:15;13.30;1.00
9323;DHT22;4700;48.822;9.270;2022-10-28T06:12:05;13.30;1.00
9323;DHT22;4700;48.822;9.270;2022-10-28T06:14:54;13.40;1.00
9323;DHT22;4700;48.822;9.270;2022-10-28T06:17:40;13.50;1.00
9323;DHT22;4700;48.822;9.270;2022-10-28T06:22:59;13.50;1.00
9323;DHT22;4700;48.822;9.270;2022-10-28T06:25:45;13.60;1.00
9323;DHT22;4700;48.822;9.270;2022-10-28T06:28:31;13.60;1.00
9323;DHT22;4700;48.822;9.270;2022-10-28T06:31:20;13.70;1.00
9323;DHT22;4700;48.822;9.270;2022-10-28T06:34:06;13.70;1.00
9323;DHT22;4700;48.822;9.270;2022-10-28T06:36:53;13.70;1.00
9323;DHT22;4700;48.822;9.270;2022-10-28T06:39:40;13.70;1.00
9323;DHT22;4700;48.822;9.270;2022-10-28T06:42:28;13.80;1.00
9323;DHT22;4700;48.822;9.270;2022-10-28T06:45:16;13.80;1.00
9323;DHT22;4700;48.822;9.270;2022-10-28T06:48:05;13.90;1.00
9323;DHT22;4700;48.822;9.270;2022-10-28T06:50:54;14.00;1.00
9323;DHT22;4700;48.822;9.270;2022-10-28T06:53:41;14.10;1.00
9323;DHT22;4700;48.822;9.270;2022-10-28T06:56:27;14.30;1.00
9323;DHT22;4700;48.822;9.270;2022-10-28T06:59:14;14.40;1.00
9323;DHT22;4700;48.822;9.270;2022-10-28T07:02:00;14.50;1.00
9323;DHT22;4700;48.822;9.270;2022-10-28T07:04:48;14.50;1.00
9323;DHT22;4700;48.822;9.270;2022-10-28T07:07:34;14.40;1.00
9323;DHT22;4700;48.822;9.270;2022-10-28T07:10:21;14.50;1.00
9323;DHT22;4700;48.822;9.270;2022-10-28T07:13:08;14.60;1.00
9323;DHT22;4700;48.822;9.270;2022-10-28T07:15:56;14.90;1.00
9323;DHT22;4700;48.822;9.270;2022-10-28T07:18:43;15.10;1.00
9323;DHT22;4700;48.822;9.270;2022-10-28T07:21:30;15.30;1.00
9323;DHT22;4700;48.822;9.270;2022-10-28T07:24:17;15.50;1.00
9323;DHT22;4700;48.822;9.270;2022-10-28T07:27:07;15.50;1.00
9323;DHT22;4700;48.822;9.270;2022-10-28T07:29:54;15.60;1.00
9323;DHT22;4700;48.822;9.270;2022-10-28T07:32:40;15.70;1.00
9323;DHT22;4700;48.822;9.270;2022-10-28T07:35:25;15.90;1.00
9323;DHT22;4700;48.822;9.270;2022-10-28T07:38:14;16.00;1.00
9323;DHT22;4700;48.822;9.270;2022-10-28T07:41:03;16.20;1.00
9323;DHT22;4700;48.822;9.270;2022-10-28T07:43:50;16.40;1.00
9323;DHT22;4700;48.822;9.270;2022-10-28T07:46:36;16.50;1.00
9323;DHT22;4700;48.822;9.270;2022-10-28T07:49:21;16.60;1.00
9323;DHT22;4700;48.822;9.270;2022-10-28T07:52:09;16.70;1.00
9323;DHT22;4700;48.822;9.270;2022-10-28T07:54:56;16.70;1.00
9323;DHT22;4700;48.822;9.270;2022-10-28T07:57:43;16.80;1.00
9323;DHT22;4700;48.822;9.270;2022-10-28T08:00:30;16.80;1.00
9323;DHT22;4700;48.822;9.270;2022-10-28T08:03:16;16.80;1.00
9323;DHT22;4700;48.822;9.270;2022-10-28T08:06:07;16.80;1.00
9323;DHT22;4700;48.822;9.270;2022-10-28T08:08:58;16.90;1.00
9323;DHT22;4700;48.822;9.270;2022-10-28T08:11:49;16.90;1.00
9323;DHT22;4700;48.822;9.270;2022-10-28T08:14:36;16.90;1.00
9323;DHT22;4700;48.822;9.270;2022-10-28T08:17:24;17.00;1.00
9323;DHT22;4700;48.822;9.270;2022-10-28T08:20:10;17.20;1.00
9323;DHT22;4700;48.822;9.270;2022-10-28T08:22:57;17.40;1.00
9323;DHT22;4700;48.822;9.270;2022-10-28T08:25:48;17.70;1.00
9323;DHT22;4700;48.822;9.270;2022-10-28T08:28:36;17.80;1.00
9323;DHT22;4700;48.822;9.270;2022-10-28T08:31:22;18.00;1.00
9323;DHT22;4700;48.822;9.270;2022-10-28T08:34:09;18.10;1.00
9323;DHT22;4700;48.822;9.270;2022-10-28T08:36:55;18.10;1.00
9323;DHT22;4700;48.822;9.270;2022-10-28T08:39:41;18.20;1.00
9323;DHT22;4700;48.822;9.270;2022-10-28T08:42:36;18.40;1.00
9323;DHT22;4700;48.822;9.270;2022-10-28T08:45:34;18.40;1.00
9323;DHT22;4700;48.822;9.270;2022-10-28T08:48:29;18.40;1.00
9323;DHT22;4700;48.822;9.270;2022-10-28T08:51:21;18.40;1.00
9323;DHT22;4700;48.822;9.270;2022-10-28T08:54:14;18.20;1.00
9323;DHT22;4700;48.822;9.270;2022-10-28T08:57:03;17.80;1.00
9323;DHT22;4700;48.822;9.270;2022-10-28T08:59:51;17.60;1.00
9323;DHT22;4700;48.822;9.270;2022-10-28T09:02:54;17.30;1.00
9323;DHT22;4700;48.822;9.270;2022-10-28T09:05:43;17.50;1.00
9323;DHT22;4700;48.822;9.270;2022-10-28T09:08:33;17.60;1.00
9323;DHT22;4700;48.822;9.270;2022-10-28T09:11:41;17.50;1.00
9323;DHT22;4700;48.822;9.270;2022-10-28T09:14:40;17.70;1.00
9323;DHT22;4700;48.822;9.270;2022-10-28T09:17:31;17.80;1.00
9323;DHT22;4700;48.822;9.270;2022-10-28T09:20:30;18.10;1.00
9323;DHT22;4700;48.822;9.270;2022-10-28T09:23:21;18.40;1.00
9323;DHT22;4700;48.822;9.270;2022-10-28T09:26:13;18.80;1.00
9323;DHT22;4700;48.822;9.270;2022-10-28T09:29:22;19.20;1.00
9323;DHT22;4700;48.822;9.270;2022-10-28T09:32:15;19.50;1.00
9323;DHT22;4700;48.822;9.270;2022-10-28T09:35:07;19.80;1.00
9323;DHT22;4700;48.822;9.270;2022-10-28T09:38:04;19.90;1.00
9323;DHT22;4700;48.822;9.270;2022-10-28T09:41:00;19.60;1.00
9323;DHT22;4700;48.822;9.270;2022-10-28T09:43:50;18.90;1.00
9323;DHT22;4700;48.822;9.270;2022-10-28T09:46:39;18.30;1.00
9323;DHT22;4700;48.822;9.270;2022-10-28T09:49:27;17.70;1.00
9323;DHT22;4700;48.822;9.270;2022-10-28T09:52:18;17.30;1.00
9323;DHT22;4700;48.822;9.270;2022-10-28T09:55:16;17.20;1.00
9323;DHT22;4700;48.822;9.270;2022-10-28T09:58:04;17.30;1.00
9323;DHT22;4700;48.822;9.270;2022-10-28T10:00:50;17.60;1.00
9323;DHT22;4700;48.822;9.270;2022-10-28T10:03:36;18.00;1.00
9323;DHT22;4700;48.822;9.270;2022-10-28T10:06:26;18.60;1.00
9323;DHT22;4700;48.822;9.270;2022-10-28T10:09:19;19.20;1.00
9323;DHT22;4700;48.822;9.270;2022-10-28T10:12:09;19.80;1.00
9323;DHT22;4700;48.822;9.270;2022-10-28T10:14:56;20.40;1.00
9323;DHT22;4700;48.822;9.270;2022-10-28T10:17:46;20.80;1.00
9323;DHT22;4700;48.822;9.270;2022-10-28T10:20:46;21.20;1.00
9323;DHT22;4700;48.822;9.270;2022-10-28T10:23:34;21.40;1.00
9323;DHT22;4700;48.822;9.270;2022-10-28T10:26:19;21.70;1.00
9323;DHT22;4700;48.822;9.270;2022-10-28T10:29:11;21.90;1.00
9323;DHT22;4700;48.822;9.270;2022-10-28T10:32:07;22.20;1.00
9323;DHT22;4700;48.822;9.270;2022-10-28T10:34:57;22.70;1.00
9323;DHT22;4700;48.822;9.270;2022-10-28T10:37:46;23.30;1.00
9323;DHT22;4700;48.822;9.270;2022-10-28T10:40:35;23.80;1.00
9323;DHT22;4700;48.822;9.270;2022-10-28T10:43:29;23.80;1.00
9323;DHT22;4700;48.822;9.270;2022-10-28T10:46:17;23.90;1.00
9323;DHT22;4700;48.822;9.270;2022-10-28T10:49:11;23.70;1.00
9323;DHT22;4700;48.822;9.270;2022-10-28T10:52:00;23.70;1.00
9323;DHT22;4700;48.822;9.270;2022-10-28T10:54:57;23.40;1.00
9323;DHT22;4700;48.822;9.270;2022-10-28T10:57:45;23.00;1.00
9323;DHT22;4700;48.822;9.270;2022-10-28T11:00:36;22.40;1.00
9323;DHT22;4700;48.822;9.270;2022-10-28T11:03:27;22.10;1.00
9323;DHT22;4700;48.822;9.270;2022-10-28T11:06:20;22.10;1.00
9323;DHT22;4700;48.822;9.270;2022-10-28T11:09:22;22.20;1.00
9323;DHT22;4700;48.822;9.270;2022-10-28T11:12:15;22.40;1.00
9323;DHT22;4700;48.822;9.270;2022-10-28T11:15:02;22.60;1.00
9323;DHT22;4700;48.822;9.270;2022-10-28T11:17:57;22.80;1.00
9323;DHT22;4700;48.822;9.270;2022-10-28T11:20:51;23.00;1.00
9323;DHT22;4700;48.822;9.270;2022-10-28T11:23:47;23.30;1.00
9323;DHT22;4700;48.822;9.270;2022-10-28T11:26:39;23.50;1.00
9323;DHT22;4700;48.822;9.270;2022-10-28T11:29:28;23.80;1.00
9323;DHT22;4700;48.822;9.270;2022-10-28T11:32:28;24.10;1.00
9323;DHT22;4700;48.822;9.270;2022-10-28T11:35:41;24.00;1.00
9323;DHT22;4700;48.822;9.270;2022-10-28T11:38:46;24.00;1.00
9323;DHT22;4700;48.822;9.270;2022-10-28T11:41:42;24.00;1.00
9323;DHT22;4700;48.822;9.270;2022-10-28T11:44:43;23.70;1.00
9323;DHT22;4700;48.822;9.270;2022-10-28T11:47:53;23.00;1.00
9323;DHT22;4700;48.822;9.270;2022-10-28T11:51:03;22.40;1.00
9323;DHT22;4700;48.822;9.270;2022-10-28T11:54:13;21.90;1.00
9323;DHT22;4700;48.822;9.270;2022-10-28T11:57:07;21.60;1.00
9323;DHT22;4700;48.822;9.270;2022-10-28T12:00:20;21.40;1.00
9323;DHT22;4700;48.822;9.270;2022-10-28T12:03:20;21.10;1.00
9323;DHT22;4700;48.822;9.270;2022-10-28T12:06:15;20.90;1.00
9323;DHT22;4700;48.822;9.270;2022-10-28T12:09:12;20.70;1.00
9323;DHT22;4700;48.822;9.270;2022-10-28T12:12:11;20.70;1.00
9323;DHT22;4700;48.822;9.270;2022-10-28T12:15:09;20.80;1.00
9323;DHT22;4700;48.822;9.270;2022-10-28T12:18:06;21.00;1.00
9323;DHT22;4700;48.822;9.270;2022-10-28T12:21:00;21.40;1.00
9323;DHT22;4700;48.822;9.270;2022-10-28T12:23:48;21.80;1.00
9323;DHT22;4700;48.822;9.270;2022-10-28T12:26:39;22.00;1.00
9323;DHT22;4700;48.822;9.270;2022-10-28T12:29:28;22.40;1.00
9323;DHT22;4700;48.822;9.270;2022-10-28T12:32:20;22.60;1.00
9323;DHT22;4700;48.822;9.270;2022-10-28T12:35:14;22.70;1.00
9323;DHT22;4700;48.822;9.270;2022-10-28T12:38:09;22.80;1.00
9323;DHT22;4700;48.822;9.270;2022-10-28T12:41:03;22.90;1.00
9323;DHT22;4700;48.822;9.270;2022-10-28T12:43:57;22.80;1.00
9323;DHT22;4700;48.822;9.270;2022-10-28T12:46:52;22.90;1.00
9323;DHT22;4700;48.822;9.270;2022-10-28T12:49:49;23.10;1.00
9323;DHT22;4700;48.822;9.270;2022-10-28T12:52:43;23.30;1.00
9323;DHT22;4700;48.822;9.270;2022-10-28T12:55:37;23.30;1.00
9323;DHT22;4700;48.822;9.270;2022-10-28T12:58:29;23.40;1.00
9323;DHT22;4700;48.822;9.270;2022-10-28T13:01:20;23.70;1.00
9323;DHT22;4700;48.822;9.270;2022-10-28T13:04:10;23.90;1.00
9323;DHT22;4700;48.822;9.270;2022-10-28T13:07:22;24.10;1.00
9323;DHT22;4700;48.822;9.270;2022-10-28T13:10:21;24.40;1.00
9323;DHT22;4700;48.822;9.270;2022-10-28T13:13:38;24.60;1.00
9323;DHT22;4700;48.822;9.270;2022-10-28T13:16:58;24.60;1.00
9323;DHT22;4700;48.822;9.270;2022-10-28T13:20:00;24.30;1.00
9323;DHT22;4700;48.822;9.270;2022-10-28T13:26:16;23.50;1.00
9323;DHT22;4700;48.822;9.270;2022-10-28T13:29:19;23.30;1.00
9323;DHT22;4700;48.822;9.270;2022-10-28T13:32:27;23.20;1.00
9323;DHT22;4700;48.822;9.270;2022-10-28T13:35:21;23.10;1.00
9323;DHT22;4700;48.822;9.270;2022-10-28T13:38:10;23.00;1.00
9323;DHT22;4700;48.822;9.270;2022-10-28T13:44:41;22.90;1.00
9323;DHT22;4700;48.822;9.270;2022-10-28T13:47:33;22.90;1.00
9323;DHT22;4700;48.822;9.270;2022-10-28T13:53:40;22.90;1.00
9323;DHT22;4700;48.822;9.270;2022-10-28T13:56:47;22.90;1.00
9323;DHT22;4700;48.822;9.270;2022-10-28T13:59:45;22.90;1.00
9323;DHT22;4700;48.822;9.270;2022-10-28T14:02:37;22.90;1.00
9323;DHT22;4700;48.822;9.270;2022-10-28T14:08:33;22.80;1.00
9323;DHT22;4700;48.822;9.270;2022-10-28T14:11:24;22.70;1.00
9323;DHT22;4700;48.822;9.270;2022-10-28T14:14:14;22.70;1.00
9323;DHT22;4700;48.822;9.270;2022-10-28T14:17:00;22.70;1.00
9323;DHT22;4700;48.822;9.270;2022-10-28T14:19:50;22.80;1.00
9323;DHT22;4700;48.822;9.270;2022-10-28T14:22:36;22.80;1.00
9323;DHT22;4700;48.822;9.270;2022-10-28T14:26:02;22.90;1.00
9323;DHT22;4700;48.822;9.270;2022-10-28T14:28:53;22.90;1.00
9323;DHT22;4700;48.822;9.270;2022-10-28T14:31:40;23.00;1.00
9323;DHT22;4700;48.822;9.270;2022-10-28T14:34:37;22.90;1.00
9323;DHT22;4700;48.822;9.270;2022-10-28T14:38:00;23.00;1.00
9323;DHT22;4700;48.822;9.270;2022-10-28T14:40:53;23.10;1.00
9323;DHT22;4700;48.822;9.270;2022-10-28T14:43:57;23.10;1.00
9323;DHT22;4700;48.822;9.270;2022-10-28T14:46:58;23.10;1.00
9323;DHT22;4700;48.822;9.270;2022-10-28T14:49:55;23.10;1.00
9323;DHT22;4700;48.822;9.270;2022-10-28T14:52:43;23.10;1.00
9323;DHT22;4700;48.822;9.270;2022-10-28T14:55:33;23.10;1.00
9323;DHT22;4700;48.822;9.270;2022-10-28T14:58:21;23.10;1.00
9323;DHT22;4700;48.822;9.270;2022-10-28T15:01:19;23.00;1.00
9323;DHT22;4700;48.822;9.270;2022-10-28T15:04:11;23.00;1.00
9323;DHT22;4700;48.822;9.270;2022-10-28T15:06:57;22.90;1.00
9323;DHT22;4700;48.822;9.270;2022-10-28T15:09:45;22.80;1.00
9323;DHT22;4700;48.822;9.270;2022-10-28T15:12:33;22.70;1.00
9323;DHT22;4700;48.822;9.270;2022-10-28T15:15:20;22.60;1.00
9323;DHT22;4700;48.822;9.270;2022-10-28T15:18:19;22.50;1.00
9323;DHT22;4700;48.822;9.270;2022-10-28T15:21:07;22.50;1.00
9323;DHT22;4700;48.822;9.270;2022-10-28T15:23:59;22.40;1.00
9323;DHT22;4700;48.822;9.270;2022-10-28T15:26:52;22.40;1.00
9323;DHT22;4700;48.822;9.270;2022-10-28T15:29:40;22.30;1.00
9323;DHT22;4700;48.822;9.270;2022-10-28T15:32:32;22.30;1.00
9323;DHT22;4700;48.822;9.270;2022-10-28T15:35:37;22.20;1.00
9323;DHT22;4700;48.822;9.270;2022-10-28T15:38:31;22.10;1.00
9323;DHT22;4700;48.822;9.270;2022-10-28T15:41:39;22.00;1.00
9323;DHT22;4700;48.822;9.270;2022-10-28T15:44:30;21.90;1.00
9323;DHT22;4700;48.822;9.270;2022-10-28T15:47:24;21.80;1.00
9323;DHT22;4700;48.822;9.270;2022-10-28T15:50:27;21.60;1.00
9323;DHT22;4700;48.822;9.270;2022-10-28T15:53:31;21.50;1.00
9323;DHT22;4700;48.822;9.270;2022-10-28T15:56:22;21.40;1.00
9323;DHT22;4700;48.822;9.270;2022-10-28T15:59:15;21.30;1.00
9323;DHT22;4700;48.822;9.270;2022-10-28T16:02:02;21.20;1.00
9323;DHT22;4700;48.822;9.270;2022-10-28T16:04:49;21.10;1.00
9323;DHT22;4700;48.822;9.270;2022-10-28T16:07:43;21.00;1.00
9323;DHT22;4700;48.822;9.270;2022-10-28T16:10:33;20.90;1.00
9323;DHT22;4700;48.822;9.270;2022-10-28T16:13:23;20.70;1.00
9323;DHT22;4700;48.822;9.270;2022-10-28T16:16:11;20.60;1.00
9323;DHT22;4700;48.822;9.270;2022-10-28T16:19:05;20.40;1.00
9323;DHT22;4700;48.822;9.270;2022-10-28T16:21:53;20.30;1.00
9323;DHT22;4700;48.822;9.270;2022-10-28T16:24:39;20.20;1.00
9323;DHT22;4700;48.822;9.270;2022-10-28T16:27:26;20.00;1.00
9323;DHT22;4700;48.822;9.270;2022-10-28T16:30:12;19.90;1.00
9323;DHT22;4700;48.822;9.270;2022-10-28T16:32:58;19.70;1.00
9323;DHT22;4700;48.822;9.270;2022-10-28T16:35:44;19.50;1.00
9323;DHT22;4700;48.822;9.270;2022-10-28T16:38:31;19.40;1.00
9323;DHT22;4700;48.822;9.270;2022-10-28T16:41:17;19.20;1.00
9323;DHT22;4700;48.822;9.270;2022-10-28T16:44:04;19.20;1.00
9323;DHT22;4700;48.822;9.270;2022-10-28T16:46:50;19.10;1.00
9323;DHT22;4700;48.822;9.270;2022-10-28T16:49:35;19.20;1.00
9323;DHT22;4700;48.822;9.270;2022-10-28T16:52:23;19.20;1.00
9323;DHT22;4700;48.822;9.270;2022-10-28T16:55:14;19.20;1.00
9323;DHT22;4700;48.822;9.270;2022-10-28T16:58:00;19.20;1.00
9323;DHT22;4700;48.822;9.270;2022-10-28T17:00:46;19.10;1.00
9323;DHT22;4700;48.822;9.270;2022-10-28T17:03:31;19.10;1.00
9323;DHT22;4700;48.822;9.270;2022-10-28T17:06:17;19.00;1.00
9323;DHT22;4700;48.822;9.270;2022-10-28T17:09:03;19.00;1.00
9323;DHT22;4700;48.822;9.270;2022-10-28T17:11:50;18.90;1.00
9323;DHT22;4700;48.822;9.270;2022-10-28T17:14:36;18.80;1.00
9323;DHT22;4700;48.822;9.270;2022-10-28T17:17:21;18.70;1.00
9323;DHT22;4700;48.822;9.270;2022-10-28T17:20:08;18.60;1.00
9323;DHT22;4700;48.822;9.270;2022-10-28T17:22:54;18.50;1.00
9323;DHT22;4700;48.822;9.270;2022-10-28T17:25:41;18.40;1.00
9323;DHT22;4700;48.822;9.270;2022-10-28T17:28:28;18.30;1.00
9323;DHT22;4700;48.822;9.270;2022-10-28T17:31:14;18.20;1.00
9323;DHT22;4700;48.822;9.270;2022-10-28T17:34:00;18.10;1.00
9323;DHT22;4700;48.822;9.270;2022-10-28T17:36:45;18.00;1.00
9323;DHT22;4700;48.822;9.270;2022-10-28T17:39:31;17.90;1.00
9323;DHT22;4700;48.822;9.270;2022-10-28T17:42:17;17.80;1.00
9323;DHT22;4700;48.822;9.270;2022-10-28T17:45:06;17.70;1.00
9323;DHT22;4700;48.822;9.270;2022-10-28T17:47:52;17.60;1.00
9323;DHT22;4700;48.822;9.270;2022-10-28T17:50:38;17.60;1.00
9323;DHT22;4700;48.822;9.270;2022-10-28T17:53:23;17.70;1.00
9323;DHT22;4700;48.822;9.270;2022-10-28T17:56:09;17.70;1.00
9323;DHT22;4700;48.822;9.270;2022-10-28T17:58:55;17.60;1.00
9323;DHT22;4700;48.822;9.270;2022-10-28T18:01:42;17.50;1.00
9323;DHT22;4700;48.822;9.270;2022-10-28T18:04:28;17.40;1.00
9323;DHT22;4700;48.822;9.270;2022-10-28T18:07:13;17.40;1.00
9323;DHT22;4700;48.822;9.270;2022-10-28T18:09:59;17.30;1.00
9323;DHT22;4700;48.822;9.270;2022-10-28T18:12:48;17.30;1.00
9323;DHT22;4700;48.822;9.270;2022-10-28T18:15:35;17.30;1.00
9323;DHT22;4700;48.822;9.270;2022-10-28T18:18:24;17.30;1.00
9323;DHT22;4700;48.822;9.270;2022-10-28T18:21:10;17.30;1.00
9323;DHT22;4700;48.822;9.270;2022-10-28T18:23:56;17.30;1.00
9323;DHT22;4700;48.822;9.270;2022-10-28T18:26:46;17.20;1.00
9323;DHT22;4700;48.822;9.270;2022-10-28T18:29:32;17.10;1.00
9323;DHT22;4700;48.822;9.270;2022-10-28T18:32:18;17.00;1.00
9323;DHT22;4700;48.822;9.270;2022-10-28T18:35:05;16.90;1.00
9323;DHT22;4700;48.822;9.270;2022-10-28T18:37:52;16.80;1.00
9323;DHT22;4700;48.822;9.270;2022-10-28T18:40:44;16.70;1.00
9323;DHT22;4700;48.822;9.270;2022-10-28T18:43:30;16.80;1.00
9323;DHT22;4700;48.822;9.270;2022-10-28T18:46:15;16.80;1.00
9323;DHT22;4700;48.822;9.270;2022-10-28T18:49:01;16.80;1.00
9323;DHT22;4700;48.822;9.270;2022-10-28T18:51:49;16.80;1.00
9323;DHT22;4700;48.822;9.270;2022-10-28T18:54:35;16.70;1.00
9323;DHT22;4700;48.822;9.270;2022-10-28T18:57:21;16.70;1.00
9323;DHT22;4700;48.822;9.270;2022-10-28T19:00:08;16.60;1.00
9323;DHT22;4700;48.822;9.270;2022-10-28T19:02:53;16.50;1.00
9323;DHT22;4700;48.822;9.270;2022-10-28T19:05:39;16.40;1.00
9323;DHT22;4700;48.822;9.270;2022-10-28T19:08:26;16.30;1.00
9323;DHT22;4700;48.822;9.270;2022-10-28T19:11:12;16.30;1.00
9323;DHT22;4700;48.822;9.270;2022-10-28T19:13:59;16.20;1.00